All
Wyndham Airport (Wyndham, Western Australia) WYN Weather
|
Wyndham, Western Australia (WYN / YWYM)
Clear skies
Light winds |
|
80 °F |
There is no TAF data available at WYN or any nearby airports.
Recent WYN METAR history
| Date | Time (AWST) | Flight Rules | Wind Dir. | Speed | Type | Height AGL (ft) | Visibility | Temp (°C) | Temp (°F) | Dew Point (°C) | Dew Point (°F) | Rel. Humid. | Pressure | Density Altitude | Remarks |
|---|---|---|---|---|---|---|---|---|---|---|---|---|---|---|---|
| 06-May | 07:00AM | n/a | 140° | 7 kt | Missing | 27° | 80° | 16° | 60° | 51% | 1014 mb | 1,431 ft | |||
| 06-May | 06:00AM | n/a | 110° | 4 kt | Missing | 26° | 78° | 18° | 64° | 61% | 1013 mb | 1,340 ft | |||
| 06-May | 05:00AM | n/a | 130° | 5 kt | Missing | 26° | 78° | 18° | 64° | 61% | 1013 mb | 1,340 ft | |||
| 06-May | 04:00AM | n/a | 140° | 5 kt | Missing | 26° | 78° | 18° | 64° | 61% | 1012 mb | 1,370 ft | |||
| 06-May | 03:00AM | n/a | 100° | 8 kt | Missing | 27° | 80° | 17° | 62° | 54% | 1011 mb | 1,519 ft | |||
| 06-May | 02:00AM | n/a | 90° | 9 kt | Missing | 28° | 82° | 18° | 64° | 55% | 1011 mb | 1,639 ft | |||
| 06-May | 01:00AM | n/a | 110° | 5 kt | Missing | 27° | 80° | 20° | 68° | 66% | 1012 mb | 1,490 ft | |||
| 06-May | 12:00AM | n/a | 120° | 4 kt | Missing | 26° | 78° | 21° | 69° | 74% | 1012 mb | 1,370 ft | |||
| 05-May | 11:00PM | n/a | 130° | 5 kt | Missing | 26° | 78° | 22° | 71° | 79% | 1012 mb | 1,370 ft | |||
| 05-May | 10:00PM | n/a | 120° | 5 kt | Missing | 26° | 78° | 22° | 71° | 79% | 1012 mb | 1,370 ft | |||
| 05-May | 09:00PM | n/a | 120° | 7 kt | Missing | 28° | 82° | 22° | 71° | 70% | 1012 mb | 1,610 ft | |||
| 05-May | 08:00PM | n/a | 60° | 5 kt | Missing | 29° | 84° | 20° | 68° | 58% | 1012 mb | 1,730 ft | |||
| 05-May | 07:00PM | n/a | 10° | 5 kt | Missing | 30° | 86° | 20° | 68° | 55% | 1011 mb | 1,879 ft | |||
| 05-May | 06:00PM | n/a | 360° | 6 kt | Missing | 30° | 86° | 20° | 68° | 55% | 1010 mb | 1,909 ft | |||
| 05-May | 05:00PM | n/a | 360° | 7 kt | Missing | 32° | 89° | 21° | 69° | 52% | 1010 mb | 2,149 ft | |||
| 05-May | 04:00PM | n/a | 70° | 6 kt | Missing | 33° | 91° | 18° | 64° | 41% | 1010 mb | 2,269 ft | |||
| 05-May | 03:00PM | n/a | 90° | 5 kt | Missing | 35° | 95° | 19° | 66° | 39% | 1009 mb | 2,538 ft | |||
| 05-May | 02:00PM | n/a | 110° | 9 kt | Missing | 35° | 95° | 19° | 66° | 39% | 1009 mb | 2,538 ft | |||
| 05-May | 01:00PM | n/a | 100° | 8 kt | Missing | 35° | 95° | 19° | 66° | 39% | 1010 mb | 2,509 ft | |||
| 05-May | 12:00PM | n/a | 30° | 10 kt | Missing | 34° | 93° | 18° | 64° | 39% | 1010 mb | 2,389 ft | |||
| 05-May | 11:00AM | n/a | 100° | 10 kt | Missing | 34° | 93° | 21° | 69° | 47% | 1011 mb | 2,359 ft | |||
| 05-May | 10:00AM | n/a | 90° | 9 kt | Missing | 32° | 89° | 19° | 66° | 46% | 1013 mb | 2,060 ft | |||
| 05-May | 09:00AM | n/a | 90° | 10 kt | Missing | 31° | 87° | 20° | 68° | 52% | 1013 mb | 1,940 ft | |||
| 05-May | 08:00AM | n/a | 110° | 8 kt | Missing | 30° | 86° | 19° | 66° | 52% | 1013 mb | 1,820 ft |
Login
| Your browser is unsupported. upgrade your browser |
